Maple Heights, Ohio
Current Conditions -  °F | °C
As of 4:53 PM on Monday 24 Nov 2014 (Local Time) from KBKL Reporting Station
Overcast Overcast  
Wind Chill: 39°   Ceiling: 3300
Heat Index: 48°   Visibility: 10mi
Dew Point: 36°   Wind: 31mph
Humidity: 63%   Direction: 240°WSW
Pressure: 29.55"   Gusts: 37mph
Location:  41.41°N, 81.56°W
Report Text: KBKL 242153Z 24027G32KT 10SM OVC033 09/02 A2955 RMK AO2 PK WND 23037/2106 SLP006 T00890022
Loading
Personal Weather Stations






























Interactive Weather Map New forecast layout! Learn more

10-Day Weather Forecast

Advertisements
Track Severe Weather on mobile